Vulcan, Canada
Current Conditions -  °F | °C
As of 1:00 AM on Friday 28 Nov 2014 (Local Time) from CYQL Reporting Station
Haze Haze  
Wind Chill:   Ceiling: 200
Heat Index: 21°   Visibility: 1mi
Dew Point: 21°   Wind: 13mph
Humidity: 100%   Direction: 300°WNW
Pressure: 29.6"   Gusts: NA
Location:  50.4°N, 113.25°W
Report Text: CYQL 280800Z AUTO 30011KT 1SM BR OVC002 M06/M06 A2960 RMK ICG SLP067
Loading
Personal Weather Stations






























Interactive Weather Map New forecast layout! Learn more

10-Day Weather Forecast

Advertisements
Track Severe Weather on mobile